Annette Island, AK

10:41 PM AKDT on August 20, 2014 (GMT -0800)
Annette Island | Change Station
CLOSE
Current Station
Airport
Location: Annette Island,
Elevation: 112 ft
Nearby Weather Stations

Elev 112 ft 55.04 °N, 131.57 °W | Updated 48 minutes ago

Clear
Clear
57 °F
Feels Like 57 °F
N
0
Wind Variable Wind from North

Today
High -- | Low -- °F
--% Chance of Precip.
Yesterday
High -- | Low -- °F
Precip. -- in
5:30 AM 8:07 PM
Waning Crescent, 16% visible
Pressure 29.97 in
Visibility 10.0 miles
Clouds Clear
Dew Point 53 °F
Humidity 87%
Rainfall 0.00 in
Snow Depth Not available.
UV 0 out of 12
Pollen Not available.
Air Quality Not available.
Flu Activity Not available.
METAR PANT 210553Z AUTO 00000KT 10SM CLR 14/12 A2996 RMK AO2 SLP147 T01390117 10200 20133 53006 TSNO

More Conditions Fewer Conditions

Pressure 29.97 in
Visibility 10.0 miles
Clouds Clear
Dew Point 53 °F
Humidity 87%
Rainfall 0.00 in
Snow Depth Not available.
UV 0 out of 12
Pollen Not available.
Air Quality Not available.
Flu Activity Not available.
METAR PANT 210553Z AUTO 00000KT 10SM CLR 14/12 A2996 RMK AO2 SLP147 T01390117 10200 20133 53006 TSNO

More Conditions Fewer Conditions

10-Day Weather Forecast

Almanac

Astronomy

Aug. 20, 2014 Rise Set
Actual Time 5:30 AM AKDT 8:07 PM AKDT
Civil Twilight 4:49 AM AKDT 8:48 PM AKDT
Nautical Twilight 3:56 AM AKDT 9:40 PM AKDT
Astronomical Twilight 2:49 AM AKDT 10:46 PM AKDT
Moon 12:57 AM AKDT (8/20) 5:15 PM AKDT (8/20)
Length of Visible Light 15h 58m
Length of Day
14h 37m
Tomorrow will be 4m 15s shorter.
Waning Crescent, 16% of the Moon is Illuminated
Aug 21
Waning Crescent
Aug 25
New
Sep 2
First Quarter
Sep 8
Full
Sep 15
Last Quarter

Community

WunderPhotos

Upload Photos

1,745,858 photos uploaded!

Nearby

Snow Depth

Station Depth Elevation
Long Lake 0 in 820 ft
Upper Tsaina River 0 in 1750 ft
Moraine 0 in 2100 ft
Nuka Glacier 34 in 1250 ft
Grouse Creek Divide 0 in 700 ft

Earthquake Activity

City Distance Mag. Time & Date
No recent earthquake activity has been reported nearby.
Minimum magnitude displayed is 2.5.

Coastal Water Temperatures

Place Temperature
No Stations Reporting

Nearby Weather Stations